Flight Track Log - Related Links

Times and Time Zones

All times are in EDT time to prevent confusion due to time zone crossing. See the DAL1999 flight status page for this flight to view local times or setup timezone preferences in your user account.

Time Position Orientation Groundspeed Altitude Reporting Facility
EDT Latitude Longitude Course Direction KTS MPH feet Rate Location/Type
Thu 12:22:35 PM 28.4000 -81.3000 204° Southwest 153 176 900  Level Orlando TRACON
Thu 12:23:24 PM 28.3667 -81.3167 246° West 219 252 2,100 2,092 Climbing Orlando TRACON
Thu 12:24:24 PM 28.3333 -81.4000 270° West 259 298 4,700 2,650 Climbing Orlando TRACON
Thu 12:25:24 PM 28.3333 -81.4833 281° West 292 336 7,400 2,650 Climbing Orlando TRACON
Thu 12:26:24 PM 28.3500 -81.5833 283° West 315 362 10,000 1,882 Climbing Orlando TRACON
Thu 12:27:57 PM 28.3847 -81.7506 281° West 373 429 12,200 1,843 Climbing Jacksonville Center
Thu 12:28:57 PM 28.4067 -81.8778 279° West 402 463 14,700 2,400 Climbing Jacksonville Center
Thu 12:29:57 PM 28.4244 -82.0097 281° West 420 483 17,000 2,083 Climbing Jacksonville Center
Thu 12:30:58 PM 28.4483 -82.1489 280° West 435 501 18,900 1,450 Climbing Jacksonville Center
Thu 12:31:57 PM 28.4697 -82.2858 316° Northwest 446 513 19,900 555 Climbing Jacksonville Center
Thu 12:32:57 PM 28.5581 -82.3844 331° Northwest 423 487 20,000 50 Climbing Jacksonville Center
Thu 12:33:58 PM 28.6708 -82.4547 331° Northwest 431 496 20,000 843 Level Jacksonville Center
Thu 12:34:58 PM 28.7817 -82.5253 331° Northwest 441 507 21,700 1,700 Climbing Jacksonville Center
Thu 12:35:58 PM 28.8947 -82.5961 330° Northwest 447 514 23,400 1,850 Climbing Jacksonville Center
Thu 12:36:58 PM 28.9969 -82.6647 332° Northwest 459 528 25,400 1,600 Climbing Jacksonville Center
Thu 12:37:58 PM 29.1078 -82.7333 331° Northwest 465 535 26,600 1,500 Climbing Jacksonville Center
Thu 12:38:58 PM 29.2206 -82.8044 330° Northwest 465 535 28,400 1,600 Climbing Jacksonville Center
Thu 12:39:58 PM 29.3292 -82.8758 330° Northwest 465 535 29,800 1,250 Climbing Jacksonville Center
Thu 12:40:58 PM 29.4356 -82.9450 331° Northwest 454 522 30,900 1,200 Climbing Jacksonville Center
Thu 12:41:58 PM 29.5442 -83.0144 326° Northwest 448 516 32,200 1,100 Climbing Jacksonville Center
Thu 12:42:58 PM 29.6442 -83.0908 323° Northwest 437 503 33,100 900 Climbing Jacksonville Center
Thu 12:43:58 PM 29.7400 -83.1747 322° Northwest 437 503 34,000 450 Climbing Jacksonville Center
Thu 12:44:58 PM 29.8297 -83.2564 323° Northwest 431 496 34,000  Level Jacksonville Center
Thu 12:45:58 PM 29.9275 -83.3408 321° Northwest 424 488 34,000  Level Jacksonville Center
Thu 12:46:58 PM 30.0150 -83.4228 322° Northwest 424 488 34,000  Level Jacksonville Center
Thu 12:47:58 PM 30.1083 -83.5072 323° Northwest 424 488 34,000  Level Jacksonville Center
Thu 12:48:58 PM 30.2144 -83.5992 321° Northwest 424 488 34,000  Level Jacksonville Center
Thu 12:49:58 PM 30.3058 -83.6842 321° Northwest 424 488 34,000  Level Jacksonville Center
Thu 12:50:58 PM 30.3972 -83.7692 322° Northwest 424 488 34,000  Level Jacksonville Center
Thu 12:51:58 PM 30.4906 -83.8544 322° Northwest 424 488 34,000  Level Jacksonville Center
Thu 12:52:58 PM 30.5817 -83.9375 322° Northwest 424 488 34,000  Level Jacksonville Center
Thu 12:53:58 PM 30.6728 -84.0206 321° Northwest 424 488 34,000  Level Jacksonville Center
Thu 12:54:57 PM 30.7639 -84.1061 321° Northwest 424 488 34,000  Level Jacksonville Center
Thu 12:55:57 PM 30.8592 -84.1944 321° Northwest 424 488 34,000  Level Jacksonville Center
Thu 12:56:57 PM 30.9500 -84.2806 322° Northwest 424 488 34,000  Level Jacksonville Center
Thu 12:57:58 PM 31.0450 -84.3669 322° Northwest 424 488 34,000  Level Jacksonville Center
Thu 12:58:57 PM 31.1381 -84.4533 322° Northwest 429 494 34,000  Level Jacksonville Center
Thu 12:59:57 PM 31.2331 -84.5400 321° Northwest 429 494 34,000  Level Jacksonville Center
Thu 01:02:05 PM 31.4214 -84.7178 321° Northwest 432 497 34,000  Level Atlanta Center
Thu 01:03:04 PM 31.5231 -84.8161 320° Northwest 432 497 34,000  Level Atlanta Center
Thu 01:04:04 PM 31.6164 -84.9069 322° Northwest 427 491 34,000  Level Atlanta Center
Thu 01:05:05 PM 31.7094 -84.9933 321° Northwest 432 497 34,000  Level Atlanta Center
Thu 01:06:04 PM 31.8028 -85.0822 324° Northwest 427 491 34,000  Level Atlanta Center
Thu 01:07:05 PM 31.8878 -85.1542 321° Northwest 427 491 34,000  Level Atlanta Center
Thu 01:08:04 PM 31.9808 -85.2436 321° Northwest 427 491 34,000  Level Atlanta Center
Thu 01:09:04 PM 32.0739 -85.3331 321° Northwest 427 491 34,000  Level Atlanta Center
Thu 01:10:04 PM 32.1667 -85.4228 321° Northwest 427 491 34,000  Level Atlanta Center
Thu 01:11:04 PM 32.2575 -85.5100 322° Northwest 427 491 34,000  Level Atlanta Center
Thu 01:12:04 PM 32.3544 -85.6003 321° Northwest 432 497 34,000  Level Atlanta Center
Thu 01:13:04 PM 32.4494 -85.6931 321° Northwest 438 504 34,000  Level Atlanta Center
Thu 01:14:04 PM 32.5461 -85.7858 321° Northwest 444 511 34,000  Level Atlanta Center
Thu 01:15:05 PM 32.6511 -85.8867 320° Northwest 444 511 34,000  Level Atlanta Center
Thu 01:16:04 PM 32.7458 -85.9800 321° Northwest 444 511 34,000  Level Atlanta Center
Thu 01:17:04 PM 32.8425 -86.0736 320° Northwest 444 511 34,000  Level Atlanta Center
Thu 01:18:04 PM 32.9347 -86.1672 320° Northwest 439 505 34,000  Level Atlanta Center
Thu 01:19:04 PM 33.0311 -86.2639 302° West 459 528 34,000  Level Atlanta Center
Thu 01:20:04 PM 33.0936 -86.3819 293° West 427 491 34,000  Level Atlanta Center
Thu 01:21:05 PM 33.1392 -86.5097 290° West 411 473 34,000  Level Atlanta Center
Thu 01:22:04 PM 33.1783 -86.6375 288° West 422 486 34,000  Level Atlanta Center
Thu 01:23:04 PM 33.2150 -86.7750 288° West 433 498 34,000  Level Atlanta Center
Thu 01:24:05 PM 33.2517 -86.9078 286° West 425 489 34,000  Level Atlanta Center
Thu 01:25:04 PM 33.2839 -87.0406 285° West 430 495 34,000  Level Atlanta Center
Thu 01:26:04 PM 33.3103 -87.1583 309° West 419 482 34,000  Level Atlanta Center
Thu 01:28:17 PM 33.4736 -87.3986 325° Northwest 421 484 34,000  Level Memphis Center
Thu 01:29:17 PM 33.5717 -87.4825 325° Northwest 421 484 34,000  Level Memphis Center
Thu 01:30:17 PM 33.6694 -87.5642 324° Northwest 426 490 34,000  Level Memphis Center
Thu 01:31:17 PM 33.7781 -87.6581 326° Northwest 431 496 34,000  Level Memphis Center
Thu 01:32:17 PM 33.8672 -87.7306 327° Northwest 437 503 34,000  Level Memphis Center
Thu 01:33:17 PM 33.9669 -87.8100 324° Northwest 431 496 34,000  Level Memphis Center
Thu 01:34:17 PM 34.0625 -87.8925 325° Northwest 431 496 34,000  Level Memphis Center
Thu 01:35:17 PM 34.1603 -87.9750 310° West 426 490 34,000  Level Memphis Center
Thu 01:36:17 PM 34.2417 -88.0908 298° West 415 478 34,000  Level Memphis Center
Thu 01:37:17 PM 34.2917 -88.2053 301° West 415 478 34,000 -450 Level Memphis Center
Thu 01:38:17 PM 34.3522 -88.3269 301° West 420 483 33,100 -2,200 Descending Memphis Center
Thu 01:39:17 PM 34.4125 -88.4489 302° West 420 483 29,600 -2,950 Descending Memphis Center
Thu 01:40:17 PM 34.4750 -88.5708 301° West 425 489 27,200 -3,100 Descending Memphis Center
Thu 01:41:17 PM 34.5414 -88.7056 301° West 425 489 23,400 -3,200 Descending Memphis Center
Thu 01:42:17 PM 34.6014 -88.8256 291° West 425 489 20,800 -2,764 Descending Memphis Center
Thu 01:44:02 PM 34.6675 -89.0369 285° West 389 448 15,800 -2,875 Descending FAA TRACON SMA TRACON (SMA)
Thu 01:44:41 PM 34.6864 -89.1228 285° West 378 435 13,900 -2,475 Descending FAA TRACON SMA TRACON (SMA)
Thu 01:45:22 PM 34.7042 -89.2022 285° West 370 426 12,500 -1,425 Descending FAA TRACON SMA TRACON (SMA)
Thu 01:46:01 PM 34.7217 -89.2797 285° West 354 407 12,000 -375 Descending FAA TRACON SMA TRACON (SMA)
Thu 01:46:42 PM 34.7375 -89.3508 286° West 328 377 12,000 -474 Level FAA TRACON SMA TRACON (SMA)
Thu 01:47:17 PM 34.7492 -89.4017 285° West 335 386 11,400 -835 Descending Memphis Center
Thu 01:48:01 PM 34.7681 -89.4861 300° West 320 368 10,900 -661 Descending FAA TRACON SMA TRACON (SMA)
Thu 01:49:24 PM 34.8253 -89.6056 302° West 283 326 10,000 -446 Descending FAA TRACON SMA TRACON (SMA)
Thu 01:50:02 PM 34.8500 -89.6544 301° West 279 321 10,000 -623 Level FAA TRACON SMA TRACON (SMA)
Thu 01:50:41 PM 34.8772 -89.7094 300° West 274 315 9,200 -1,425 Descending FAA TRACON SMA TRACON (SMA)
Thu 01:51:22 PM 34.9033 -89.7642 302° West 275 316 8,100 -900 Descending FAA TRACON SMA TRACON (SMA)
Thu 01:52:01 PM 34.9303 -89.8167 327° Northwest 276 318 8,000 -75 Descending FAA TRACON SMA TRACON (SMA)
Thu 01:52:42 PM 34.9728 -89.8506 355° North 280 322 8,000 -150 Level FAA TRACON SMA TRACON (SMA)
Thu 01:53:21 PM 35.0203 -89.8558 353° North 249 287 7,800 -975 Descending FAA TRACON SMA TRACON (SMA)
Thu 01:54:02 PM 35.0606 -89.8617 353° North 238 274 6,700 -1,704 Descending FAA TRACON SMA TRACON (SMA)
Thu 01:54:42 PM 35.1067 -89.8683 358° North 241 277 5,500 -1,518 Descending FAA TRACON SMA TRACON (SMA)
Thu 01:55:25 PM 35.1478 -89.8697 359° North 239 275 4,600 -1,139 Descending FAA TRACON SMA TRACON (SMA)
Thu 01:56:01 PM 35.1933 -89.8703 355° North 237 273 4,000 -1,013 Descending FAA TRACON SMA TRACON (SMA)
Thu 01:56:42 PM 35.2375 -89.8747 355° North 236 272 3,300 -750 Descending FAA TRACON SMA TRACON (SMA)
Thu 01:57:21 PM 35.2772 -89.8789 328° Northwest 234 269 3,000 -300 Descending FAA TRACON SMA TRACON (SMA)
Thu 01:58:02 PM 35.3144 -89.9069 272° West 217 250 2,900 -519 Descending FAA TRACON SMA TRACON (SMA)
Thu 01:58:42 PM 35.3158 -89.9503 222° Southwest 181 208 2,300 -684 Descending FAA TRACON SMA TRACON (SMA)
Thu 01:59:21 PM 35.2967 -89.9711 189° South 176 203 2,000 -225 Descending FAA TRACON SMA TRACON (SMA)
Thu 02:00:02 PM 35.2611 -89.9781 179° South 175 201 2,000  Level FAA TRACON SMA TRACON (SMA)
Thu 02:00:42 PM 35.2306 -89.9772 179° South 180 207 2,000  Level FAA TRACON SMA TRACON (SMA)
Thu 02:01:22 PM 35.1964 -89.9767 179° South 177 204 2,000  Level FAA TRACON SMA TRACON (SMA)
Thu 02:02:01 PM 35.1614 -89.9758 178° South 178 205 2,000 -150 Level FAA TRACON SMA TRACON (SMA)
Thu 02:02:42 PM 35.1269 -89.9747 179° South 178 205 1,800 -525 Descending FAA TRACON SMA TRACON (SMA)
Thu 02:03:21 PM 35.1014 -89.9744 179° South 174 200 1,300 -750 Descending FAA TRACON SMA TRACON (SMA)
Thu 02:04:02 PM 35.0722 -89.9736 179° South 142 163 800 -600 Descending FAA TRACON SMA TRACON (SMA)
Thu 02:04:41 PM 35.0547 -89.9731 179° South 137 158 500 -462 Descending FAA TRACON SMA TRACON (SMA)

Login

Don't have an account? Register now (free) for customized features, flight alerts, and more!